sensor_id;sensor_type;location;lat;lon;timestamp;P1;durP1;ratioP1;P2;durP2;ratioP2
22425;SDS011;11380;50.822;15.790;2022-08-11T00:04:23;52.43;;;48.10;;
22425;SDS011;11380;50.822;15.790;2022-08-11T00:09:32;53.13;;;48.67;;
22425;SDS011;11380;50.822;15.790;2022-08-11T00:14:42;53.03;;;48.53;;
22425;SDS011;11380;50.822;15.790;2022-08-11T00:19:48;52.53;;;48.20;;
22425;SDS011;11380;50.822;15.790;2022-08-11T00:24:56;52.73;;;48.33;;
22425;SDS011;11380;50.822;15.790;2022-08-11T00:30:08;52.57;;;48.03;;
22425;SDS011;11380;50.822;15.790;2022-08-11T00:35:16;52.83;;;48.40;;
22425;SDS011;11380;50.822;15.790;2022-08-11T00:40:32;52.87;;;48.53;;
22425;SDS011;11380;50.822;15.790;2022-08-11T00:45:40;53.00;;;48.53;;
22425;SDS011;11380;50.822;15.790;2022-08-11T00:56:16;51.80;;;47.50;;
22425;SDS011;11380;50.822;15.790;2022-08-11T01:06:45;52.67;;;48.23;;
22425;SDS011;11380;50.822;15.790;2022-08-11T01:28:44;52.33;;;48.00;;
22425;SDS011;11380;50.822;15.790;2022-08-11T01:50:02;52.07;;;47.77;;
22425;SDS011;11380;50.822;15.790;2022-08-11T01:55:17;51.06;;;46.94;;
22425;SDS011;11380;50.822;15.790;2022-08-11T02:00:29;51.83;;;47.23;;
22425;SDS011;11380;50.822;15.790;2022-08-11T02:11:08;51.60;;;47.40;;
22425;SDS011;11380;50.822;15.790;2022-08-11T02:16:47;51.77;;;47.57;;
22425;SDS011;11380;50.822;15.790;2022-08-11T02:28:06;51.50;;;47.30;;
22425;SDS011;11380;50.822;15.790;2022-08-11T02:33:21;52.53;;;48.23;;
22425;SDS011;11380;50.822;15.790;2022-08-11T02:38:31;52.10;;;47.70;;
22425;SDS011;11380;50.822;15.790;2022-08-11T02:49:35;52.07;;;47.87;;
22425;SDS011;11380;50.822;15.790;2022-08-11T02:55:21;52.02;;;47.72;;
22425;SDS011;11380;50.822;15.790;2022-08-11T03:00:49;51.48;;;47.28;;
22425;SDS011;11380;50.822;15.790;2022-08-11T03:11:21;51.87;;;47.67;;
22425;SDS011;11380;50.822;15.790;2022-08-11T03:22:28;51.37;;;47.17;;
22425;SDS011;11380;50.822;15.790;2022-08-11T03:27:52;51.67;;;47.37;;
22425;SDS011;11380;50.822;15.790;2022-08-11T03:44:17;50.57;;;46.57;;
22425;SDS011;11380;50.822;15.790;2022-08-11T03:49:46;50.88;;;46.75;;
22425;SDS011;11380;50.822;15.790;2022-08-11T03:55:03;51.03;;;46.93;;
22425;SDS011;11380;50.822;15.790;2022-08-11T04:05:43;50.30;;;46.30;;
22425;SDS011;11380;50.822;15.790;2022-08-11T04:27:12;51.43;;;47.17;;
22425;SDS011;11380;50.822;15.790;2022-08-11T04:38:16;55.22;;;50.44;;
22425;SDS011;11380;50.822;15.790;2022-08-11T04:43:30;53.00;;;48.57;;
22425;SDS011;11380;50.822;15.790;2022-08-11T05:00:15;53.15;;;48.52;;
22425;SDS011;11380;50.822;15.790;2022-08-11T05:16:44;54.40;;;49.77;;
22425;SDS011;11380;50.822;15.790;2022-08-11T05:22:09;54.30;;;49.63;;
22425;SDS011;11380;50.822;15.790;2022-08-11T05:27:44;55.47;;;50.47;;
22425;SDS011;11380;50.822;15.790;2022-08-11T05:33:20;55.37;;;50.57;;
22425;SDS011;11380;50.822;15.790;2022-08-11T05:38:55;57.67;;;51.77;;
22425;SDS011;11380;50.822;15.790;2022-08-11T05:44:24;55.57;;;50.57;;
22425;SDS011;11380;50.822;15.790;2022-08-11T05:49:50;55.23;;;50.33;;
22425;SDS011;11380;50.822;15.790;2022-08-11T05:55:15;55.00;;;50.10;;
22425;SDS011;11380;50.822;15.790;2022-08-11T06:00:41;55.00;;;50.20;;
22425;SDS011;11380;50.822;15.790;2022-08-11T06:05:48;55.03;;;50.13;;
22425;SDS011;11380;50.822;15.790;2022-08-11T06:11:00;55.30;;;50.23;;
22425;SDS011;11380;50.822;15.790;2022-08-11T06:16:07;56.50;;;51.20;;
22425;SDS011;11380;50.822;15.790;2022-08-11T06:26:19;55.25;;;50.35;;
22425;SDS011;11380;50.822;15.790;2022-08-11T06:31:25;55.45;;;50.45;;
22425;SDS011;11380;50.822;15.790;2022-08-11T06:36:33;56.17;;;51.03;;
22425;SDS011;11380;50.822;15.790;2022-08-11T06:47:10;56.33;;;51.13;;
22425;SDS011;11380;50.822;15.790;2022-08-11T06:52:16;55.77;;;50.73;;
22425;SDS011;11380;50.822;15.790;2022-08-11T06:57:24;55.05;;;49.95;;
22425;SDS011;11380;50.822;15.790;2022-08-11T07:02:57;55.10;;;50.20;;
22425;SDS011;11380;50.822;15.790;2022-08-11T07:14:00;57.13;;;51.85;;
22425;SDS011;11380;50.822;15.790;2022-08-11T07:19:26;56.73;;;51.50;;
22425;SDS011;11380;50.822;15.790;2022-08-11T07:24:59;56.92;;;51.65;;
22425;SDS011;11380;50.822;15.790;2022-08-11T07:30:26;55.83;;;50.73;;
22425;SDS011;11380;50.822;15.790;2022-08-11T07:35:40;55.97;;;50.87;;
22425;SDS011;11380;50.822;15.790;2022-08-11T07:40:48;56.50;;;51.17;;
22425;SDS011;11380;50.822;15.790;2022-08-11T07:45:54;56.27;;;51.10;;
22425;SDS011;11380;50.822;15.790;2022-08-11T07:51:20;55.77;;;50.57;;
22425;SDS011;11380;50.822;15.790;2022-08-11T07:56:43;56.27;;;50.97;;
22425;SDS011;11380;50.822;15.790;2022-08-11T08:02:03;56.60;;;51.40;;
22425;SDS011;11380;50.822;15.790;2022-08-11T08:07:29;56.43;;;50.97;;
22425;SDS011;11380;50.822;15.790;2022-08-11T08:12:55;55.67;;;50.53;;
22425;SDS011;11380;50.822;15.790;2022-08-11T08:18:18;56.17;;;50.97;;
22425;SDS011;11380;50.822;15.790;2022-08-11T08:23:28;55.97;;;50.87;;
22425;SDS011;11380;50.822;15.790;2022-08-11T08:28:38;55.88;;;50.48;;
22425;SDS011;11380;50.822;15.790;2022-08-11T08:33:43;55.43;;;50.30;;
22425;SDS011;11380;50.822;15.790;2022-08-11T08:38:50;55.50;;;50.30;;
22425;SDS011;11380;50.822;15.790;2022-08-11T08:43:58;55.98;;;50.78;;
22425;SDS011;11380;50.822;15.790;2022-08-11T08:49:08;56.30;;;51.00;;
22425;SDS011;11380;50.822;15.790;2022-08-11T08:54:18;56.03;;;50.83;;
22425;SDS011;11380;50.822;15.790;2022-08-11T08:59:25;55.65;;;50.40;;
22425;SDS011;11380;50.822;15.790;2022-08-11T09:04:33;56.27;;;50.97;;
22425;SDS011;11380;50.822;15.790;2022-08-11T09:14:50;56.65;;;51.25;;
22425;SDS011;11380;50.822;15.790;2022-08-11T09:20:12;56.47;;;51.07;;
22425;SDS011;11380;50.822;15.790;2022-08-11T09:25:29;56.03;;;50.80;;
22425;SDS011;11380;50.822;15.790;2022-08-11T09:30:53;56.97;;;51.47;;
22425;SDS011;11380;50.822;15.790;2022-08-11T09:35:59;57.30;;;51.70;;
22425;SDS011;11380;50.822;15.790;2022-08-11T09:41:09;56.37;;;51.02;;
22425;SDS011;11380;50.822;15.790;2022-08-11T09:46:19;56.93;;;51.53;;
22425;SDS011;11380;50.822;15.790;2022-08-11T09:51:30;56.13;;;50.87;;
22425;SDS011;11380;50.822;15.790;2022-08-11T09:56:36;56.18;;;50.80;;
22425;SDS011;11380;50.822;15.790;2022-08-11T10:02:01;55.10;;;50.00;;
22425;SDS011;11380;50.822;15.790;2022-08-11T10:07:07;55.87;;;50.37;;
22425;SDS011;11380;50.822;15.790;2022-08-11T10:12:24;55.73;;;50.60;;
22425;SDS011;11380;50.822;15.790;2022-08-11T10:17:43;55.90;;;50.50;;
22425;SDS011;11380;50.822;15.790;2022-08-11T10:23:07;55.40;;;50.10;;
22425;SDS011;11380;50.822;15.790;2022-08-11T10:28:33;55.73;;;50.57;;
22425;SDS011;11380;50.822;15.790;2022-08-11T10:33:43;55.83;;;50.33;;
22425;SDS011;11380;50.822;15.790;2022-08-11T10:39:07;56.00;;;50.77;;
22425;SDS011;11380;50.822;15.790;2022-08-11T10:44:15;55.92;;;50.75;;
22425;SDS011;11380;50.822;15.790;2022-08-11T10:49:22;55.80;;;50.52;;
22425;SDS011;11380;50.822;15.790;2022-08-11T10:54:32;55.63;;;50.52;;
22425;SDS011;11380;50.822;15.790;2022-08-11T10:59:56;55.70;;;50.40;;
22425;SDS011;11380;50.822;15.790;2022-08-11T11:10:29;55.85;;;50.60;;
22425;SDS011;11380;50.822;15.790;2022-08-11T11:15:37;55.80;;;50.43;;
22425;SDS011;11380;50.822;15.790;2022-08-11T11:21:04;56.80;;;51.10;;
22425;SDS011;11380;50.822;15.790;2022-08-11T11:31:54;55.30;;;50.20;;
22425;SDS011;11380;50.822;15.790;2022-08-11T11:37:16;56.63;;;51.03;;
22425;SDS011;11380;50.822;15.790;2022-08-11T11:42:21;56.18;;;50.88;;
22425;SDS011;11380;50.822;15.790;2022-08-11T11:47:29;56.67;;;51.37;;
22425;SDS011;11380;50.822;15.790;2022-08-11T11:52:37;55.93;;;50.63;;
22425;SDS011;11380;50.822;15.790;2022-08-11T11:57:44;56.50;;;51.23;;
22425;SDS011;11380;50.822;15.790;2022-08-11T12:03:06;56.45;;;51.15;;
22425;SDS011;11380;50.822;15.790;2022-08-11T12:08:15;56.28;;;50.92;;
22425;SDS011;11380;50.822;15.790;2022-08-11T12:13:24;55.97;;;50.77;;
22425;SDS011;11380;50.822;15.790;2022-08-11T12:18:45;56.30;;;51.00;;
22425;SDS011;11380;50.822;15.790;2022-08-11T12:23:55;56.63;;;51.27;;
22425;SDS011;11380;50.822;15.790;2022-08-11T12:29:21;56.83;;;51.33;;
22425;SDS011;11380;50.822;15.790;2022-08-11T12:34:29;56.40;;;51.13;;
22425;SDS011;11380;50.822;15.790;2022-08-11T12:39:36;56.80;;;51.40;;
22425;SDS011;11380;50.822;15.790;2022-08-11T12:45:06;56.90;;;51.57;;
22425;SDS011;11380;50.822;15.790;2022-08-11T12:50:34;56.25;;;50.95;;
22425;SDS011;11380;50.822;15.790;2022-08-11T12:56:00;56.33;;;50.97;;
22425;SDS011;11380;50.822;15.790;2022-08-11T13:01:23;56.35;;;51.05;;
22425;SDS011;11380;50.822;15.790;2022-08-11T13:06:46;56.43;;;50.93;;
22425;SDS011;11380;50.822;15.790;2022-08-11T13:11:54;56.13;;;50.85;;
22425;SDS011;11380;50.822;15.790;2022-08-11T13:17:18;56.87;;;51.37;;
22425;SDS011;11380;50.822;15.790;2022-08-11T13:22:29;56.50;;;51.20;;
22425;SDS011;11380;50.822;15.790;2022-08-11T13:27:36;56.90;;;51.40;;
22425;SDS011;11380;50.822;15.790;2022-08-11T13:32:43;56.70;;;51.13;;
22425;SDS011;11380;50.822;15.790;2022-08-11T13:37:49;56.70;;;51.30;;
22425;SDS011;11380;50.822;15.790;2022-08-11T13:42:57;56.53;;;51.20;;
22425;SDS011;11380;50.822;15.790;2022-08-11T13:48:05;56.85;;;51.35;;
22425;SDS011;11380;50.822;15.790;2022-08-11T13:53:12;56.97;;;51.50;;
22425;SDS011;11380;50.822;15.790;2022-08-11T13:58:20;57.03;;;51.47;;
22425;SDS011;11380;50.822;15.790;2022-08-11T14:03:28;56.95;;;51.35;;
22425;SDS011;11380;50.822;15.790;2022-08-11T14:08:38;57.27;;;51.70;;
22425;SDS011;11380;50.822;15.790;2022-08-11T14:13:47;57.23;;;51.80;;
22425;SDS011;11380;50.822;15.790;2022-08-11T14:18:56;56.70;;;51.40;;
22425;SDS011;11380;50.822;15.790;2022-08-11T14:24:03;56.97;;;51.30;;
22425;SDS011;11380;50.822;15.790;2022-08-11T14:34:26;56.30;;;51.00;;
22425;SDS011;11380;50.822;15.790;2022-08-11T14:39:48;56.65;;;51.25;;
22425;SDS011;11380;50.822;15.790;2022-08-11T14:44:53;56.33;;;51.03;;
22425;SDS011;11380;50.822;15.790;2022-08-11T14:50:20;56.37;;;51.03;;
22425;SDS011;11380;50.822;15.790;2022-08-11T14:55:30;55.93;;;50.70;;
22425;SDS011;11380;50.822;15.790;2022-08-11T15:00:57;56.27;;;50.87;;
22425;SDS011;11380;50.822;15.790;2022-08-11T15:06:04;56.30;;;50.90;;
22425;SDS011;11380;50.822;15.790;2022-08-11T15:11:11;56.00;;;50.60;;
22425;SDS011;11380;50.822;15.790;2022-08-11T15:16:39;56.07;;;50.77;;
22425;SDS011;11380;50.822;15.790;2022-08-11T15:22:03;55.70;;;50.50;;
22425;SDS011;11380;50.822;15.790;2022-08-11T15:27:28;56.60;;;51.23;;
22425;SDS011;11380;50.822;15.790;2022-08-11T15:32:53;56.35;;;50.88;;
22425;SDS011;11380;50.822;15.790;2022-08-11T15:38:17;55.70;;;50.47;;
22425;SDS011;11380;50.822;15.790;2022-08-11T15:43:28;56.33;;;50.55;;
22425;SDS011;11380;50.822;15.790;2022-08-11T15:49:10;55.67;;;50.50;;
22425;SDS011;11380;50.822;15.790;2022-08-11T15:54:22;55.80;;;50.43;;
22425;SDS011;11380;50.822;15.790;2022-08-11T15:59:32;55.75;;;50.50;;
22425;SDS011;11380;50.822;15.790;2022-08-11T16:04:58;56.23;;;50.38;;
22425;SDS011;11380;50.822;15.790;2022-08-11T16:10:07;55.75;;;50.55;;
22425;SDS011;11380;50.822;15.790;2022-08-11T16:15:18;55.50;;;50.27;;
22425;SDS011;11380;50.822;15.790;2022-08-11T16:20:42;55.65;;;50.45;;
22425;SDS011;11380;50.822;15.790;2022-08-11T16:25:48;55.47;;;50.27;;
22425;SDS011;11380;50.822;15.790;2022-08-11T16:30:56;55.60;;;50.30;;
22425;SDS011;11380;50.822;15.790;2022-08-11T16:36:03;55.10;;;50.00;;
22425;SDS011;11380;50.822;15.790;2022-08-11T16:41:28;55.27;;;50.07;;
22425;SDS011;11380;50.822;15.790;2022-08-11T16:46:52;54.87;;;49.80;;
22425;SDS011;11380;50.822;15.790;2022-08-11T16:52:03;55.30;;;50.17;;
22425;SDS011;11380;50.822;15.790;2022-08-11T16:57:21;55.48;;;50.38;;
22425;SDS011;11380;50.822;15.790;2022-08-11T17:02:51;56.23;;;50.57;;
22425;SDS011;11380;50.822;15.790;2022-08-11T17:08:16;55.50;;;50.10;;
22425;SDS011;11380;50.822;15.790;2022-08-11T17:13:53;55.23;;;49.83;;
22425;SDS011;11380;50.822;15.790;2022-08-11T17:19:02;55.17;;;49.97;;
22425;SDS011;11380;50.822;15.790;2022-08-11T17:24:09;55.30;;;49.83;;
22425;SDS011;11380;50.822;15.790;2022-08-11T17:29:19;55.47;;;49.87;;
22425;SDS011;11380;50.822;15.790;2022-08-11T17:34:27;54.93;;;49.83;;
22425;SDS011;11380;50.822;15.790;2022-08-11T17:39:50;54.83;;;49.63;;
22425;SDS011;11380;50.822;15.790;2022-08-11T17:44:57;55.67;;;50.47;;
22425;SDS011;11380;50.822;15.790;2022-08-11T17:50:22;55.23;;;49.70;;
22425;SDS011;11380;50.822;15.790;2022-08-11T17:55:29;55.50;;;50.35;;
22425;SDS011;11380;50.822;15.790;2022-08-11T18:00:56;55.90;;;50.67;;
22425;SDS011;11380;50.822;15.790;2022-08-11T18:06:05;55.03;;;49.73;;
22425;SDS011;11380;50.822;15.790;2022-08-11T18:11:15;54.85;;;49.83;;
22425;SDS011;11380;50.822;15.790;2022-08-11T18:16:41;55.13;;;50.03;;
22425;SDS011;11380;50.822;15.790;2022-08-11T18:22:12;55.20;;;50.00;;
22425;SDS011;11380;50.822;15.790;2022-08-11T18:27:39;54.77;;;49.77;;
22425;SDS011;11380;50.822;15.790;2022-08-11T18:33:05;55.23;;;50.13;;
22425;SDS011;11380;50.822;15.790;2022-08-11T18:38:31;53.75;;;48.85;;
22425;SDS011;11380;50.822;15.790;2022-08-11T18:43:55;55.63;;;50.53;;
22425;SDS011;11380;50.822;15.790;2022-08-11T18:49:22;55.97;;;50.73;;
22425;SDS011;11380;50.822;15.790;2022-08-11T18:54:49;55.00;;;49.90;;
22425;SDS011;11380;50.822;15.790;2022-08-11T19:00:16;55.10;;;50.07;;
22425;SDS011;11380;50.822;15.790;2022-08-11T19:05:39;55.33;;;50.23;;
22425;SDS011;11380;50.822;15.790;2022-08-11T19:11:05;55.60;;;50.00;;
22425;SDS011;11380;50.822;15.790;2022-08-11T19:16:31;54.95;;;49.73;;
22425;SDS011;11380;50.822;15.790;2022-08-11T19:21:57;55.87;;;50.37;;
22425;SDS011;11380;50.822;15.790;2022-08-11T19:27:22;55.92;;;50.73;;
22425;SDS011;11380;50.822;15.790;2022-08-11T19:32:48;59.67;;;53.23;;
22425;SDS011;11380;50.822;15.790;2022-08-11T19:38:13;54.90;;;50.00;;
22425;SDS011;11380;50.822;15.790;2022-08-11T19:43:40;56.00;;;50.83;;
22425;SDS011;11380;50.822;15.790;2022-08-11T19:54:31;54.13;;;49.33;;
22425;SDS011;11380;50.822;15.790;2022-08-11T19:59:57;54.77;;;49.77;;
22425;SDS011;11380;50.822;15.790;2022-08-11T20:05:20;54.60;;;49.54;;
22425;SDS011;11380;50.822;15.790;2022-08-11T20:10:45;54.97;;;50.07;;
22425;SDS011;11380;50.822;15.790;2022-08-11T20:16:11;58.57;;;52.90;;
22425;SDS011;11380;50.822;15.790;2022-08-11T20:21:35;70.73;;;59.17;;
22425;SDS011;11380;50.822;15.790;2022-08-11T20:27:01;56.50;;;51.20;;
22425;SDS011;11380;50.822;15.790;2022-08-11T20:37:50;54.73;;;49.83;;
22425;SDS011;11380;50.822;15.790;2022-08-11T20:43:17;55.08;;;50.15;;
22425;SDS011;11380;50.822;15.790;2022-08-11T20:48:42;53.27;;;48.57;;
22425;SDS011;11380;50.822;15.790;2022-08-11T20:54:08;53.83;;;49.00;;
22425;SDS011;11380;50.822;15.790;2022-08-11T20:59:34;54.17;;;49.37;;
22425;SDS011;11380;50.822;15.790;2022-08-11T21:05:00;54.20;;;49.30;;
22425;SDS011;11380;50.822;15.790;2022-08-11T21:10:27;53.77;;;48.87;;
22425;SDS011;11380;50.822;15.790;2022-08-11T21:15:57;54.53;;;49.53;;
22425;SDS011;11380;50.822;15.790;2022-08-11T21:21:25;52.93;;;48.07;;
22425;SDS011;11380;50.822;15.790;2022-08-11T21:26:51;53.27;;;48.57;;
22425;SDS011;11380;50.822;15.790;2022-08-11T21:32:17;54.20;;;49.37;;
22425;SDS011;11380;50.822;15.790;2022-08-11T21:37:43;54.40;;;49.40;;
22425;SDS011;11380;50.822;15.790;2022-08-11T21:43:07;53.70;;;48.93;;
22425;SDS011;11380;50.822;15.790;2022-08-11T21:48:33;54.38;;;49.45;;
22425;SDS011;11380;50.822;15.790;2022-08-11T21:53:58;53.87;;;49.07;;
22425;SDS011;11380;50.822;15.790;2022-08-11T21:59:30;54.33;;;49.43;;
22425;SDS011;11380;50.822;15.790;2022-08-11T22:04:48;53.57;;;48.97;;
22425;SDS011;11380;50.822;15.790;2022-08-11T22:10:13;52.67;;;48.17;;
22425;SDS011;11380;50.822;15.790;2022-08-11T22:15:38;52.80;;;48.23;;
22425;SDS011;11380;50.822;15.790;2022-08-11T22:21:02;52.83;;;48.23;;
22425;SDS011;11380;50.822;15.790;2022-08-11T22:26:28;53.40;;;48.87;;
22425;SDS011;11380;50.822;15.790;2022-08-11T22:31:52;52.73;;;48.03;;
22425;SDS011;11380;50.822;15.790;2022-08-11T22:37:16;52.67;;;48.20;;
22425;SDS011;11380;50.822;15.790;2022-08-11T22:42:42;52.07;;;47.70;;
22425;SDS011;11380;50.822;15.790;2022-08-11T22:48:07;52.30;;;47.80;;
22425;SDS011;11380;50.822;15.790;2022-08-11T22:53:32;53.00;;;48.30;;
22425;SDS011;11380;50.822;15.790;2022-08-11T22:58:57;52.17;;;47.77;;
22425;SDS011;11380;50.822;15.790;2022-08-11T23:04:21;54.63;;;49.23;;
22425;SDS011;11380;50.822;15.790;2022-08-11T23:09:45;52.63;;;48.00;;
22425;SDS011;11380;50.822;15.790;2022-08-11T23:15:09;52.20;;;47.80;;
22425;SDS011;11380;50.822;15.790;2022-08-11T23:20:32;52.73;;;48.03;;
22425;SDS011;11380;50.822;15.790;2022-08-11T23:25:59;51.92;;;47.43;;
22425;SDS011;11380;50.822;15.790;2022-08-11T23:31:24;51.70;;;47.40;;
22425;SDS011;11380;50.822;15.790;2022-08-11T23:36:52;52.62;;;48.02;;
22425;SDS011;11380;50.822;15.790;2022-08-11T23:42:17;51.80;;;47.40;;
22425;SDS011;11380;50.822;15.790;2022-08-11T23:47:41;51.67;;;47.43;;
22425;SDS011;11380;50.822;15.790;2022-08-11T23:53:05;52.33;;;47.73;;
22425;SDS011;11380;50.822;15.790;2022-08-11T23:58:29;51.03;;;46.90;;
